Leo, Indiana
Current Conditions -  °F | °C
As of 3:15 AM on Thursday 29 Jan 2015 (Local Time) from KGWB Reporting Station
Overcast Overcast  
Wind Chill: 24°   Ceiling: 11000
Heat Index: 30°   Visibility: 10mi
Dew Point: 21°   Wind: 6mph
Humidity: 69%   Direction: 130°SE
Pressure: 29.91"   Gusts: NA
Location:  41.22°N, 85.01°W
Report Text: KGWB 290815Z AUTO 13005KT 10SM SCT090 OVC110 M01/M06 A2991 RMK AO2
Loading
Personal Weather Stations






























Interactive Weather Map New forecast layout! Learn more

10-Day Weather Forecast

Advertisements
Track Severe Weather on mobile